^^
Station Historical Data
Daily Summary for August 3, 2017 Units:  Metric    English   Both
« Previous Day
Next Day »
Daily Weekly Monthly Yearly Custom
  High: Low: Average:
Temperature: 28.1 °C 7.3 °C 12.8 °C
Dew Point: 4.1 °C -3.3 °C 0.7 °C
Humidity: 61% 14% 47%
Wind Speed: 20.9km/h -1609.1km/h -29.3km/h
Wind Gust: 20.9km/h - -
Wind- -
Pressure: 1021.9 hPa 1016.5 hPa -
Precipitation: 0 mm    
Historical Graphs
 
 
Tabular Data for August 3, 2017
Time Temperature Dew Point Pressure Wind Wind Speed Wind Gust Humidity Rainfall Rate (Hourly) solar Conditions
00:03 10 °C 1.1 °C 1021.6 hPa Calm     54% 0 mm 0.0 W/m2
00:08 10 °C 1.1 °C 1021.6 hPa Calm     54% 0 mm 0.0 W/m2
00:13 10 °C 1.1 °C 1021.6 hPa Calm   -1607.7 km/h 54% 0 mm 0.0 W/m2
00:24 10 °C 1.1 °C 1021.6 hPa North -1609.1 km/h -1607.7 km/h 54% 0 mm 0.0 W/m2
01:27 9.1 °C 1.3 °C 1020.9 hPa North -1609.1 km/h -1607.7 km/h 58% 0 mm 0.0 W/m2
01:33 9.1 °C 1.3 °C 1020.9 hPa Calm     58% 0 mm 0.0 W/m2
01:38 9 °C 0.9 °C 1020.9 hPa Calm     57% 0 mm 0.0 W/m2
01:43 8.9 °C 0.8 °C 1020.9 hPa Calm     57% 0 mm 0.0 W/m2
01:48 8.9 °C 1.1 °C 1020.5 hPa Calm     58% 0 mm 0.0 W/m2
01:53 8.9 °C 1.3 °C 1020.5 hPa Calm     59% 0 mm 0.0 W/m2
01:58 9.3 °C 1.2 °C 1020.5 hPa Calm     57% 0 mm 0.0 W/m2
02:03 9.4 °C 1.3 °C 1020.5 hPa Calm     57% 0 mm 0.0 W/m2
02:08 9.6 °C 1.2 °C 1020.5 hPa Calm     56% 0 mm 0.0 W/m2
02:14 9.5 °C 0.9 °C 1020.5 hPa Calm     55% 0 mm 0.0 W/m2
02:19 9.3 °C 1 °C 1020.5 hPa Calm     56% 0 mm 0.0 W/m2
02:24 9.1 °C 1.5 °C 1020.5 hPa Calm     59% 0 mm 0.0 W/m2
02:29 9.1 °C 1.7 °C 1020.5 hPa Calm     60% 0 mm 0.0 W/m2
02:34 9.2 °C 1.6 °C 1020.5 hPa Calm     59% 0 mm 0.0 W/m2
02:40 9.2 °C 1.6 °C 1020.5 hPa Calm     59% 0 mm 0.0 W/m2
02:45 9.2 °C 1.6 °C 1020.5 hPa Calm     59% 0 mm 0.0 W/m2
02:50 9.1 °C 2 °C 1020.5 hPa Calm     61% 0 mm 0.0 W/m2
02:55 9.1 °C 2 °C 1020.5 hPa Calm     61% 0 mm 0.0 W/m2
03:00 9.1 °C 1.5 °C 1020.5 hPa Calm     59% 0 mm 0.0 W/m2
03:05 9 °C 1.6 °C 1020.5 hPa Calm     60% 0 mm 0.0 W/m2
03:15 8.8 °C 1 °C 1020.5 hPa Calm     58% 0 mm 0.0 W/m2
03:20 8.7 °C 0.7 °C 1020.5 hPa Calm     57% 0 mm 0.0 W/m2
03:25 8.7 °C 0.7 °C 1020.5 hPa Calm     57% 0 mm 0.0 W/m2
03:30 8.8 °C 1 °C 1020.5 hPa Calm     58% 0 mm 0.0 W/m2
03:36 8.9 °C 0.3 °C 1020.5 hPa Calm     55% 0 mm 0.0 W/m2
03:46 9 °C 0.2 °C 1020.5 hPa Calm     54% 0 mm 0.0 W/m2
03:56 8.8 °C -0.5 °C 1020.5 hPa Calm     52% 0 mm 0.0 W/m2
04:02 8.5 °C -0.3 °C 1020.5 hPa Calm     54% 0 mm 0.0 W/m2
04:07 8.4 °C -0.4 °C 1020.5 hPa Calm     54% 0 mm 0.0 W/m2
04:17 8.2 °C -0.3 °C 1020.5 hPa Calm     55% 0 mm 0.0 W/m2
04:22 7.9 °C -0.3 °C 1020.9 hPa Calm     56% 0 mm 0.0 W/m2
04:27 7.8 °C 0 °C 1020.9 hPa Calm     58% 0 mm 0.0 W/m2
04:33 7.8 °C 0 °C 1020.9 hPa Calm     58% 0 mm 0.0 W/m2
04:38 7.8 °C -0.2 °C 1020.9 hPa Calm     57% 0 mm 0.0 W/m2
04:43 7.8 °C -0.4 °C 1020.9 hPa Calm     56% 0 mm 0.0 W/m2
04:48 7.8 °C -0.4 °C 1020.9 hPa Calm     56% 0 mm 0.0 W/m2
04:53 7.7 °C -0.3 °C 1020.9 hPa Calm     57% 0 mm 0.0 W/m2
04:58 7.6 °C -0.9 °C 1020.9 hPa Calm     55% 0 mm 0.0 W/m2
05:04 7.4 °C -0.8 °C 1020.9 hPa Calm     56% 0 mm 0.0 W/m2
05:09 7.3 °C -0.9 °C 1020.9 hPa Calm     56% 0 mm 0.0 W/m2
05:14 7.3 °C -0.9 °C 1021.2 hPa Calm     56% 0 mm 0.0 W/m2
05:20 7.3 °C -0.9 °C 1021.2 hPa Calm     56% 0 mm 0.0 W/m2
05:25 7.5 °C -1 °C 1021.2 hPa Calm     55% 0 mm 0.0 W/m2
05:35 7.4 °C -0.8 °C 1021.2 hPa Calm     56% 0 mm 0.0 W/m2
05:40 7.5 °C -0.7 °C 1021.2 hPa Calm     56% 0 mm 0.0 W/m2
05:46 7.7 °C -0.8 °C 1021.2 hPa Calm     55% 0 mm 0.0 W/m2
05:51 7.6 °C -0.9 °C 1021.2 hPa Calm     55% 0 mm 0.0 W/m2
05:56 7.6 °C -1.1 °C 1021.2 hPa Calm     54% 0 mm 0.0 W/m2
06:01 7.5 °C -1 °C 1021.2 hPa Calm     55% 0 mm 0.0 W/m2
06:07 7.6 °C -0.9 °C 1021.2 hPa Calm     55% 0 mm 0.0 W/m2
06:12 7.8 °C -0.7 °C 1021.2 hPa Calm     55% 0 mm 0.0 W/m2
06:22 8.9 °C -0.2 °C 1021.2 hPa Calm     53% 0 mm 0.0 W/m2
06:27 9.5 °C 0.1 °C 1021.2 hPa Calm     52% 0 mm 0.0 W/m2
06:32 10 °C 0.1 °C 1021.6 hPa Calm   6.4 km/h 50% 0 mm 5.0 W/m2
06:38 10.3 °C 0 °C 1021.6 hPa Calm     49% 0 mm 7.0 W/m2
07:08 10.1 °C -0.1 °C 1021.6 hPa Calm     49% 0 mm 53.0 W/m2
07:19 10.6 °C 0 °C 1021.9 hPa Calm     48% 0 mm 84.0 W/m2
07:23 10.8 °C -0.1 °C 1021.9 hPa Calm     47% 0 mm 102.0 W/m2
07:36 11.6 °C 0.4 °C 1021.9 hPa Calm     46% 0 mm 137.0 W/m2
07:47 12.4 °C 0.5 °C 1021.9 hPa Calm     44% 0 mm 172.0 W/m2
07:59 13.2 °C 0.9 °C 1021.9 hPa Calm     43% 0 mm 206.0 W/m2
08:13 14.6 °C 0.8 °C 1021.9 hPa Calm     39% 0 mm 250.0 W/m2
08:19 15.4 °C 0.8 °C 1021.9 hPa Calm     37% 0 mm 279.0 W/m2
08:29 16.3 °C 1.2 °C 1021.9 hPa Calm     36% 0 mm 308.0 W/m2
08:36 16.3 °C 1.2 °C 1021.9 hPa Calm     36% 0 mm 308.0 W/m2
08:45 17.6 °C 1.5 °C 1021.9 hPa Calm     34% 0 mm 348.0 W/m2
09:05 18.3 °C 1.7 °C 1021.9 hPa Calm     33% 0 mm 392.0 W/m2
09:15 18.8 °C 1.8 °C 1021.9 hPa Calm   8 km/h 32% 0 mm 422.0 W/m2
09:26 19.3 °C 1.7 °C 1021.9 hPa WNW 3.2 km/h 8 km/h 31% 0 mm 441.0 W/m2
09:31 19.8 °C 1.2 °C 1021.6 hPa Calm   6.4 km/h 29% 0 mm 466.0 W/m2
09:41 20.2 °C 1.1 °C 1021.6 hPa WNW 7.9 km/h 8 km/h 28% 0 mm 485.0 W/m2
09:59 20.5 °C 1.4 °C 1021.6 hPa Calm   11.3 km/h 28% 0 mm 519.0 W/m2
10:10 21.1 °C 1.4 °C 1021.6 hPa Calm   9.7 km/h 27% 0 mm 540.0 W/m2
10:20 21.1 °C 1.4 °C 1021.2 hPa Calm   16.1 km/h 27% 0 mm 559.0 W/m2
15:28 27.8 °C -2.1 °C 1016.8 hPa NW 13 km/h 13 km/h 14% 0 mm 301.0 W/m2
15:55 27.8 °C -2.1 °C 1016.5 hPa Calm   6.4 km/h 14% 0 mm 229.0 W/m2
16:10 28.1 °C -1.9 °C 1016.5 hPa Calm   1.6 km/h 14% 0 mm 176.0 W/m2
16:20 27.7 °C -2.2 °C 1016.5 hPa Calm   6.4 km/h 14% 0 mm 146.0 W/m2
17:15 26.4 °C -2.3 °C 1016.8 hPa Calm     15% 0 mm 9.0 W/m2
17:23 25.9 °C -2.7 °C 1016.8 hPa Calm     15% 0 mm 0.0 W/m2
17:28 25.8 °C -2.8 °C 1016.8 hPa Calm     15% 0 mm 0.0 W/m2
17:39 25.2 °C -3.3 °C 1016.8 hPa Calm     15% 0 mm 0.0 W/m2
17:52 23.7 °C 0.7 °C 1016.8 hPa NW 6.4 km/h 9.7 km/h 22% 0 mm 0.0 W/m2
18:04 22.3 °C 1.3 °C 1017.2 hPa NW 13 km/h 16.1 km/h 25% 0 mm 0.0 W/m2
18:13 21.8 °C 1.4 °C 1017.2 hPa NW 17.7 km/h 19.3 km/h 26% 0 mm 0.0 W/m2
18:24 21.3 °C 1 °C 1017.2 hPa NW 11.1 km/h 17.7 km/h 26% 0 mm 0.0 W/m2
19:20 19.7 °C 1.2 °C 1017.8 hPa NW 11.1 km/h 16.1 km/h 29% 0 mm 0.0 W/m2
19:51 18.7 °C 0.8 °C 1018.5 hPa WNW 20.9 km/h 20.9 km/h 30% 0 mm 0.0 W/m2
20:21 18.3 °C 1.3 °C 1018.5 hPa WNW 11.1 km/h -1607.7 km/h 32% 0 mm 0.0 W/m2
22:23 15.9 °C 3.7 °C 1018.5 hPa WNW 7.9 km/h 9.7 km/h 44% 0 mm 0.0 W/m2
22:35 15.7 °C 4.1 °C 1018.5 hPa WNW 7.9 km/h 12.9 km/h 46% 0 mm 0.0 W/m2
22:45 15.7 °C 4.1 °C 1018.2 hPa WNW 9.7 km/h 9.7 km/h 46% 0 mm 0.0 W/m2
22:55 15.4 °C 3.8 °C 1018.2 hPa WNW 9.7 km/h 9.7 km/h 46% 0 mm 0.0 W/m2
23:15 14.7 °C 3.8 °C 1018.2 hPa WNW 4.7 km/h 8 km/h 48% 0 mm 0.0 W/m2
23:24 14.4 °C 3.8 °C 1018.2 hPa WNW 4.7 km/h 4.8 km/h 49% 0 mm 0.0 W/m2
23:29 14.1 °C 3.3 °C 1018.2 hPa WNW 4.7 km/h 4.8 km/h 48% 0 mm 0.0 W/m2
23:44 13.5 °C 3.6 °C 1018.2 hPa WNW 7.9 km/h 8 km/h 51% 0 mm 0.0 W/m2
23:49 13.4 °C 3.7 °C 1018.2 hPa WNW 4.7 km/h 8 km/h 52% 0 mm 0.0 W/m2
23:54 13.3 °C 3.6 °C 1018.2 hPa Calm     52% 0 mm 0.0 W/m2
23:59 13.1 °C 3.5 °C 1018.2 hPa Calm     52% 0 mm 0.0 W/m2
Canyon Roadhouse, Fishriver Canyon, Namibia
Compliments of Weather Underground - 2.25 mb